Weather History for KCJR - December, 2011

Change the Weather History Date:

Sunday, December 4, 2011

  Actual Average (KOMH) Record (KOMH)
Temperature  
Mean Temperature 42 °F -  
Max Temperature 57 °F 50 °F 73 °F (2001)
Min Temperature 26 °F 29 °F 12 °F (1966)
Degree Days  
Heating Degree Days 24    
Moisture  
Dew Point 35 °F    
Average Humidity 83    
Maximum Humidity 100    
Minimum Humidity 48    
Precipitation  
Precipitation 0.00 in - - ()
Sea Level Pressure  
Sea Level Pressure 30.48 in    
Wind  
Wind Speed 1 mph (South)    
Max Wind Speed 12 mph    
Max Gust Speed 16 mph    
Visibility 9 miles    
Events      
Averages and records for this station are not official NWS values.
T = Trace of Precipitation, MM = Missing Value Source: NWS Daily Summary

Daily Weather History Graph

Daily Weather History Graph

Search for Another Location

Airport or City:

Trip Planner

Search our weather history database for the weather conditions in past years. The results will help you decide how hot, cold, wet, or windy it might be!

Date:

Astronomy

Dec. 04, 2011 Rise Set
Actual Time 7:12 AM EST 4:50 PM EST
Civil Twilight 6:43 AM EST 5:19 PM EST
Nautical Twilight 6:10 AM EST 5:52 PM EST
Astronomical Twilight 5:38 AM EST 6:24 PM EST
Moon 1:17 PM EST (12/4) 1:39 AM EST (12/4)
Length of Visible Light 10h 36m
Length of Day
9h 37m
Waxing Gibbous, 71% of the Moon is Illuminated
Dec 4
Waxing Gibbous
Dec 10
Full
Dec 17
Last Quarter
Dec 24
New
Jan 1
First Quarter

Hourly Weather History & Observations

Time (EST) Temp. Windchill Dew Point Humidity Pressure Visibility Wind Dir Wind Speed Gust Speed Precip Events Conditions
12:15 AM 30.2 °F - 30.2 °F 100% 30.57 in 10.0 mi Calm Calm - N/A   Clear
12:35 AM 30.2 °F - 30.2 °F 100% 30.56 in 10.0 mi Calm Calm - N/A   Clear
12:55 AM 30.2 °F - 30.2 °F 100% 30.56 in 7.0 mi Calm Calm - N/A   Clear
1:15 AM 30.2 °F - 30.2 °F 100% 30.56 in 7.0 mi Calm Calm - N/A   Clear
1:35 AM 30.2 °F - 30.2 °F 100% 30.56 in 7.0 mi Calm Calm - N/A   Clear
1:55 AM 30.2 °F - 28.4 °F 93% 30.56 in 7.0 mi Calm Calm - N/A   Clear
2:15 AM 30.2 °F - 28.4 °F 93% 30.56 in 7.0 mi Calm Calm - N/A   Clear
2:35 AM 30.2 °F - 28.4 °F 93% 30.55 in 7.0 mi Calm Calm - N/A   Clear
2:55 AM 28.4 °F - 28.4 °F 100% 30.55 in 7.0 mi Calm Calm - N/A   Clear
3:35 AM 28.4 °F - 28.4 °F 100% 30.54 in 5.0 mi Calm Calm - N/A   Clear
3:55 AM 28.4 °F - 28.4 °F 100% 30.54 in 7.0 mi Calm Calm - N/A   Clear
4:15 AM 28.4 °F - 26.6 °F 93% 30.54 in 7.0 mi Calm Calm - N/A   Clear
4:35 AM 28.4 °F - 28.4 °F 100% 30.53 in 10.0 mi Calm Calm - N/A   Clear
4:55 AM 28.4 °F - 28.4 °F 100% 30.52 in 7.0 mi Calm Calm - N/A   Clear
5:15 AM 26.6 °F - 26.6 °F 100% 30.52 in 7.0 mi Calm Calm - N/A   Clear
5:35 AM 28.4 °F - 26.6 °F 93% 30.53 in 10.0 mi Calm Calm - N/A   Clear
5:55 AM 26.6 °F - 26.6 °F 100% 30.52 in 7.0 mi Calm Calm - N/A   Clear
6:15 AM 28.4 °F - 26.6 °F 93% 30.53 in 7.0 mi Calm Calm - N/A   Unknown
6:35 AM 28.4 °F - 26.6 °F 93% 30.53 in 7.0 mi Calm Calm - N/A   Unknown
6:55 AM 26.6 °F - 26.6 °F 100% 30.52 in 10.0 mi Calm Calm - N/A   Unknown
7:15 AM 26.6 °F - 26.6 °F 100% 30.52 in 7.0 mi Calm Calm - N/A   Unknown
7:35 AM 26.6 °F - 26.6 °F 100% 30.52 in 7.0 mi Calm Calm - N/A   Unknown
7:55 AM 28.4 °F - 28.4 °F 100% 30.53 in 10.0 mi Calm Calm - N/A   Clear
8:15 AM 30.2 °F - 28.4 °F 93% 30.54 in 10.0 mi Calm Calm - N/A   Clear
8:35 AM 33.8 °F - 32.0 °F 93% 30.54 in 7.0 mi Calm Calm - N/A   Clear
8:55 AM 35.6 °F - 33.8 °F 93% 30.53 in 10.0 mi Calm Calm - N/A   Clear
9:15 AM 37.4 °F - 35.6 °F 93% 30.53 in 10.0 mi Calm Calm - N/A   Clear
9:35 AM 41.0 °F - 37.4 °F 87% 30.54 in 10.0 mi Calm Calm - N/A   Clear
9:55 AM 42.8 °F - 39.2 °F 87% 30.54 in 10.0 mi Calm Calm - N/A   Clear
10:15 AM 46.4 °F 43.5 °F 41.0 °F 81% 30.54 in 10.0 mi South 5.8 mph - N/A   Clear
10:35 AM 48.2 °F - 42.8 °F 82% 30.53 in 10.0 mi SSW 5.8 mph - N/A   Clear
11:15 AM 51.8 °F - 42.8 °F 71% 30.51 in 10.0 mi SSW 9.2 mph - N/A   Clear
11:35 AM 51.8 °F - 42.8 °F 71% 30.50 in 10.0 mi South 10.4 mph 16.1 mph N/A   Clear
11:55 AM 53.6 °F - 42.8 °F 67% 30.48 in 10.0 mi SSW 11.5 mph - N/A   Clear
12:15 PM 53.6 °F - 42.8 °F 67% 30.47 in 10.0 mi South 8.1 mph - N/A   Clear
12:35 PM 53.6 °F - 42.8 °F 67% 30.46 in 10.0 mi SSW 6.9 mph - N/A   Clear
12:55 PM 55.4 °F - 41.0 °F 58% 30.45 in 10.0 mi South 6.9 mph - N/A   Clear
1:15 PM 55.4 °F - 42.8 °F 63% 30.44 in 10.0 mi SSW 8.1 mph - N/A   Unknown
1:35 PM 57.2 °F - 41.0 °F 55% 30.43 in 10.0 mi SSW 8.1 mph - N/A   Unknown
1:55 PM 57.2 °F - 39.2 °F 51% 30.42 in 10.0 mi South 8.1 mph - N/A   Unknown
2:15 PM 57.2 °F - 39.2 °F 51% 30.40 in 10.0 mi SSW 9.2 mph - N/A   Unknown
2:35 PM 57.2 °F - 37.4 °F 48% 30.40 in 10.0 mi South 9.2 mph - N/A   Clear
2:55 PM 57.2 °F - 39.2 °F 51% 30.39 in 10.0 mi SSW 9.2 mph - N/A   Clear
3:15 PM 57.2 °F - 39.2 °F 51% 30.39 in 10.0 mi SSE 5.8 mph - N/A   Clear
3:55 PM 55.4 °F - 39.2 °F 54% 30.39 in 10.0 mi South 5.8 mph - N/A   Clear
4:15 PM 55.4 °F - 39.2 °F 54% 30.39 in 10.0 mi South 3.5 mph - N/A   Clear
4:35 PM 51.8 °F - 39.2 °F 62% 30.39 in 10.0 mi Calm Calm - N/A   Clear
4:55 PM 48.2 °F - 39.2 °F 71% 30.39 in 10.0 mi Calm Calm - N/A   Clear
5:15 PM 46.4 °F - 39.2 °F 76% 30.40 in 10.0 mi Calm Calm - N/A   Clear
5:35 PM 44.6 °F - 39.2 °F 81% 30.39 in 10.0 mi Calm Calm - N/A   Clear
5:55 PM 44.6 °F - 39.2 °F 81% 30.39 in 10.0 mi Calm Calm - N/A   Clear
6:15 PM 42.8 °F - 39.2 °F 87% 30.39 in 10.0 mi Calm Calm - N/A   Clear
6:35 PM 44.6 °F - 39.2 °F 81% 30.40 in 10.0 mi Calm Calm - N/A   Clear
6:55 PM 44.6 °F - 39.2 °F 81% 30.40 in 10.0 mi Calm Calm - N/A   Clear
7:15 PM 44.6 °F - 37.4 °F 76% 30.41 in 10.0 mi Calm Calm - N/A   Clear
7:35 PM 44.6 °F - 37.4 °F 76% 30.40 in 10.0 mi Calm Calm - N/A   Clear
7:55 PM 39.2 °F - 37.4 °F 93% 30.40 in 10.0 mi Calm Calm - N/A   Clear
8:15 PM 39.2 °F - 37.4 °F 93% 30.40 in 10.0 mi Calm Calm - N/A   Clear
8:35 PM 39.2 °F - 35.6 °F 87% 30.40 in 10.0 mi Calm Calm - N/A   Clear
8:55 PM 39.2 °F - 35.6 °F 87% 30.40 in 10.0 mi Calm Calm - N/A   Clear
9:15 PM 37.4 °F - 35.6 °F 93% 30.40 in 10.0 mi Calm Calm - N/A   Clear
9:35 PM 37.4 °F - 35.6 °F 93% 30.40 in 10.0 mi Calm Calm - N/A   Clear
9:55 PM 37.4 °F - 35.6 °F 93% 30.40 in 10.0 mi Calm Calm - N/A   Clear
10:15 PM 37.4 °F - 35.6 °F 93% 30.40 in 10.0 mi Calm Calm - N/A   Clear
10:35 PM 35.6 °F - 35.6 °F 100% 30.40 in 10.0 mi Calm Calm - N/A   Clear
10:55 PM 35.6 °F - 35.6 °F 100% 30.40 in 10.0 mi Calm Calm - N/A   Clear
11:15 PM 37.4 °F - 35.6 °F 93% 30.40 in 10.0 mi Calm Calm - N/A   Clear
11:35 PM 37.4 °F - 35.6 °F 93% 30.40 in 10.0 mi Calm Calm - N/A   Clear
11:55 PM 35.6 °F - 35.6 °F 100% 30.39 in 10.0 mi Calm Calm - N/A   Clear